sensor_id;sensor_type;location;lat;lon;timestamp;temperature;humidity
14735;DHT22;7458;49.002;8.472;2023-03-21T00:01:55;12.50;97.60
14735;DHT22;7458;49.002;8.472;2023-03-21T00:04:22;12.40;97.70
14735;DHT22;7458;49.002;8.472;2023-03-21T00:06:49;12.40;97.80
14735;DHT22;7458;49.002;8.472;2023-03-21T00:09:15;12.40;98.70
14735;DHT22;7458;49.002;8.472;2023-03-21T00:11:41;12.40;99.40
14735;DHT22;7458;49.002;8.472;2023-03-21T00:14:07;12.30;99.90
14735;DHT22;7458;49.002;8.472;2023-03-21T00:16:33;12.30;99.90
14735;DHT22;7458;49.002;8.472;2023-03-21T00:19:00;12.30;99.90
14735;DHT22;7458;49.002;8.472;2023-03-21T00:21:30;12.20;99.90
14735;DHT22;7458;49.002;8.472;2023-03-21T00:23:59;12.20;99.90
14735;DHT22;7458;49.002;8.472;2023-03-21T00:26:25;12.20;99.90
14735;DHT22;7458;49.002;8.472;2023-03-21T00:28:51;12.20;99.90
14735;DHT22;7458;49.002;8.472;2023-03-21T00:31:17;12.20;99.90
14735;DHT22;7458;49.002;8.472;2023-03-21T00:33:43;12.10;99.90
14735;DHT22;7458;49.002;8.472;2023-03-21T00:36:10;10.40;99.90
14735;DHT22;7458;49.002;8.472;2023-03-21T00:38:37;12.20;99.90
14735;DHT22;7458;49.002;8.472;2023-03-21T00:41:08;12.20;99.90
14735;DHT22;7458;49.002;8.472;2023-03-21T00:43:36;12.20;99.90
14735;DHT22;7458;49.002;8.472;2023-03-21T00:46:03;12.30;99.90
14735;DHT22;7458;49.002;8.472;2023-03-21T00:48:29;12.20;99.90
14735;DHT22;7458;49.002;8.472;2023-03-21T00:50:56;12.20;99.90
14735;DHT22;7458;49.002;8.472;2023-03-21T00:53:26;12.20;99.90
14735;DHT22;7458;49.002;8.472;2023-03-21T00:55:52;12.20;99.90
14735;DHT22;7458;49.002;8.472;2023-03-21T00:58:18;12.10;99.90
14735;DHT22;7458;49.002;8.472;2023-03-21T01:00:44;12.10;99.90
14735;DHT22;7458;49.002;8.472;2023-03-21T01:03:14;12.00;99.90
14735;DHT22;7458;49.002;8.472;2023-03-21T01:05:46;12.00;99.90
14735;DHT22;7458;49.002;8.472;2023-03-21T01:08:37;12.00;99.90
14735;DHT22;7458;49.002;8.472;2023-03-21T01:11:09;11.90;99.90
14735;DHT22;7458;49.002;8.472;2023-03-21T01:13:38;11.90;99.90
14735;DHT22;7458;49.002;8.472;2023-03-21T01:16:05;11.90;99.90
14735;DHT22;7458;49.002;8.472;2023-03-21T01:18:35;11.90;99.90
14735;DHT22;7458;49.002;8.472;2023-03-21T01:21:06;11.90;99.90
14735;DHT22;7458;49.002;8.472;2023-03-21T01:23:35;11.80;99.90
14735;DHT22;7458;49.002;8.472;2023-03-21T01:26:01;11.80;99.90
14735;DHT22;7458;49.002;8.472;2023-03-21T01:28:28;11.70;99.90
14735;DHT22;7458;49.002;8.472;2023-03-21T01:30:54;11.70;99.90
14735;DHT22;7458;49.002;8.472;2023-03-21T01:33:21;11.80;99.90
14735;DHT22;7458;49.002;8.472;2023-03-21T01:35:48;11.70;99.90
14735;DHT22;7458;49.002;8.472;2023-03-21T01:38:13;11.70;99.90
14735;DHT22;7458;49.002;8.472;2023-03-21T01:40:44;11.70;99.90
14735;DHT22;7458;49.002;8.472;2023-03-21T01:43:27;11.80;99.90
14735;DHT22;7458;49.002;8.472;2023-03-21T01:48:41;11.70;99.90
14735;DHT22;7458;49.002;8.472;2023-03-21T01:51:10;11.60;99.90
14735;DHT22;7458;49.002;8.472;2023-03-21T01:53:38;11.60;99.90
14735;DHT22;7458;49.002;8.472;2023-03-21T01:56:11;11.60;99.90
14735;DHT22;7458;49.002;8.472;2023-03-21T01:58:44;11.70;99.90
14735;DHT22;7458;49.002;8.472;2023-03-21T02:01:10;11.70;99.90
14735;DHT22;7458;49.002;8.472;2023-03-21T02:03:42;11.70;99.90
14735;DHT22;7458;49.002;8.472;2023-03-21T02:09:31;11.70;99.90
14735;DHT22;7458;49.002;8.472;2023-03-21T02:11:59;11.70;99.90
14735;DHT22;7458;49.002;8.472;2023-03-21T02:14:27;11.70;99.90
14735;DHT22;7458;49.002;8.472;2023-03-21T02:28:40;11.70;99.90
14735;DHT22;7458;49.002;8.472;2023-03-21T02:40:13;11.60;99.90
14735;DHT22;7458;49.002;8.472;2023-03-21T02:43:16;11.50;99.90
14735;DHT22;7458;49.002;8.472;2023-03-21T02:46:01;11.30;99.90
14735;DHT22;7458;49.002;8.472;2023-03-21T02:48:37;11.30;99.90
14735;DHT22;7458;49.002;8.472;2023-03-21T02:51:09;11.20;99.90
14735;DHT22;7458;49.002;8.472;2023-03-21T02:53:43;11.30;99.90
14735;DHT22;7458;49.002;8.472;2023-03-21T02:56:11;11.20;99.90
14735;DHT22;7458;49.002;8.472;2023-03-21T02:58:38;12.90;99.90
14735;DHT22;7458;49.002;8.472;2023-03-21T03:01:06;11.20;99.90
14735;DHT22;7458;49.002;8.472;2023-03-21T03:03:34;11.30;99.90
14735;DHT22;7458;49.002;8.472;2023-03-21T03:06:03;11.20;99.90
14735;DHT22;7458;49.002;8.472;2023-03-21T03:24:01;11.10;99.90
14735;DHT22;7458;49.002;8.472;2023-03-21T03:26:46;11.10;99.90
14735;DHT22;7458;49.002;8.472;2023-03-21T03:29:15;11.10;99.90
14735;DHT22;7458;49.002;8.472;2023-03-21T03:32:07;11.10;99.90
14735;DHT22;7458;49.002;8.472;2023-03-21T03:34:42;11.10;99.90
14735;DHT22;7458;49.002;8.472;2023-03-21T03:37:16;11.10;99.90
14735;DHT22;7458;49.002;8.472;2023-03-21T03:39:56;11.10;99.90
14735;DHT22;7458;49.002;8.472;2023-03-21T03:42:30;11.10;99.90
14735;DHT22;7458;49.002;8.472;2023-03-21T03:45:01;11.10;99.90
14735;DHT22;7458;49.002;8.472;2023-03-21T03:47:52;11.00;99.90
14735;DHT22;7458;49.002;8.472;2023-03-21T03:56:03;11.00;99.90
14735;DHT22;7458;49.002;8.472;2023-03-21T03:58:31;10.90;99.90
14735;DHT22;7458;49.002;8.472;2023-03-21T04:00:59;10.80;99.90
14735;DHT22;7458;49.002;8.472;2023-03-21T04:03:25;10.80;99.90
14735;DHT22;7458;49.002;8.472;2023-03-21T04:05:50;10.70;99.90
14735;DHT22;7458;49.002;8.472;2023-03-21T04:08:16;10.70;99.90
14735;DHT22;7458;49.002;8.472;2023-03-21T04:10:43;10.70;99.90
14735;DHT22;7458;49.002;8.472;2023-03-21T04:13:09;10.70;99.90
14735;DHT22;7458;49.002;8.472;2023-03-21T04:15:35;10.70;99.90
14735;DHT22;7458;49.002;8.472;2023-03-21T04:18:01;10.70;99.90
14735;DHT22;7458;49.002;8.472;2023-03-21T04:20:28;10.70;99.90
14735;DHT22;7458;49.002;8.472;2023-03-21T04:22:53;10.70;99.90
14735;DHT22;7458;49.002;8.472;2023-03-21T04:25:21;10.70;99.90
14735;DHT22;7458;49.002;8.472;2023-03-21T04:27:47;10.80;99.90
14735;DHT22;7458;49.002;8.472;2023-03-21T04:30:15;10.80;99.90
14735;DHT22;7458;49.002;8.472;2023-03-21T04:32:41;10.80;99.90
14735;DHT22;7458;49.002;8.472;2023-03-21T04:35:08;10.80;99.90
14735;DHT22;7458;49.002;8.472;2023-03-21T04:37:35;10.80;99.90
14735;DHT22;7458;49.002;8.472;2023-03-21T04:40:26;10.80;99.90
14735;DHT22;7458;49.002;8.472;2023-03-21T04:42:52;10.80;99.90
14735;DHT22;7458;49.002;8.472;2023-03-21T04:45:18;10.70;99.90
14735;DHT22;7458;49.002;8.472;2023-03-21T04:47:44;10.70;99.90
14735;DHT22;7458;49.002;8.472;2023-03-21T04:50:11;10.70;99.90
14735;DHT22;7458;49.002;8.472;2023-03-21T04:52:38;10.70;99.90
14735;DHT22;7458;49.002;8.472;2023-03-21T04:55:04;10.70;99.90
14735;DHT22;7458;49.002;8.472;2023-03-21T04:57:30;10.70;99.90
14735;DHT22;7458;49.002;8.472;2023-03-21T04:59:55;10.70;99.90
14735;DHT22;7458;49.002;8.472;2023-03-21T05:02:21;10.60;99.90
14735;DHT22;7458;49.002;8.472;2023-03-21T05:04:47;10.60;99.90
14735;DHT22;7458;49.002;8.472;2023-03-21T05:07:13;10.60;99.90
14735;DHT22;7458;49.002;8.472;2023-03-21T05:09:39;10.60;99.90
14735;DHT22;7458;49.002;8.472;2023-03-21T05:12:04;10.60;99.90
14735;DHT22;7458;49.002;8.472;2023-03-21T05:14:30;10.60;99.90
14735;DHT22;7458;49.002;8.472;2023-03-21T05:16:56;10.50;99.90
14735;DHT22;7458;49.002;8.472;2023-03-21T05:19:27;10.50;99.90
14735;DHT22;7458;49.002;8.472;2023-03-21T05:22:01;10.50;99.90
14735;DHT22;7458;49.002;8.472;2023-03-21T05:24:31;10.50;99.90
14735;DHT22;7458;49.002;8.472;2023-03-21T05:26:58;10.40;99.90
14735;DHT22;7458;49.002;8.472;2023-03-21T05:29:30;10.40;99.90
14735;DHT22;7458;49.002;8.472;2023-03-21T05:31:59;10.40;99.90
14735;DHT22;7458;49.002;8.472;2023-03-21T05:34:25;10.40;99.90
14735;DHT22;7458;49.002;8.472;2023-03-21T05:36:53;10.40;99.90
14735;DHT22;7458;49.002;8.472;2023-03-21T05:39:19;10.40;99.90
14735;DHT22;7458;49.002;8.472;2023-03-21T05:41:46;10.40;99.90
14735;DHT22;7458;49.002;8.472;2023-03-21T05:44:12;10.40;99.90
14735;DHT22;7458;49.002;8.472;2023-03-21T05:46:38;10.40;99.90
14735;DHT22;7458;49.002;8.472;2023-03-21T05:49:03;10.40;99.90
14735;DHT22;7458;49.002;8.472;2023-03-21T05:51:29;10.50;99.90
14735;DHT22;7458;49.002;8.472;2023-03-21T05:53:55;10.60;99.90
14735;DHT22;7458;49.002;8.472;2023-03-21T05:56:21;10.60;99.90
14735;DHT22;7458;49.002;8.472;2023-03-21T05:58:47;10.70;99.90
14735;DHT22;7458;49.002;8.472;2023-03-21T06:01:13;10.70;99.90
14735;DHT22;7458;49.002;8.472;2023-03-21T06:03:38;10.80;99.90
14735;DHT22;7458;49.002;8.472;2023-03-21T06:06:04;10.90;99.90
14735;DHT22;7458;49.002;8.472;2023-03-21T06:08:31;11.00;99.90
14735;DHT22;7458;49.002;8.472;2023-03-21T06:11:02;11.40;99.90
14735;DHT22;7458;49.002;8.472;2023-03-21T06:13:28;12.50;99.90
14735;DHT22;7458;49.002;8.472;2023-03-21T06:15:57;13.50;99.90
14735;DHT22;7458;49.002;8.472;2023-03-21T06:18:22;14.80;99.90
14735;DHT22;7458;49.002;8.472;2023-03-21T06:20:48;15.20;99.90
14735;DHT22;7458;49.002;8.472;2023-03-21T06:23:14;14.90;99.90
14735;DHT22;7458;49.002;8.472;2023-03-21T06:25:40;14.40;99.90
14735;DHT22;7458;49.002;8.472;2023-03-21T06:28:05;14.60;99.90
14735;DHT22;7458;49.002;8.472;2023-03-21T06:30:31;15.30;99.90
14735;DHT22;7458;49.002;8.472;2023-03-21T06:32:57;15.90;98.90
14735;DHT22;7458;49.002;8.472;2023-03-21T06:35:23;15.60;97.60
14735;DHT22;7458;49.002;8.472;2023-03-21T06:37:48;15.10;98.20
14735;DHT22;7458;49.002;8.472;2023-03-21T06:40:15;14.90;99.00
14735;DHT22;7458;49.002;8.472;2023-03-21T06:42:41;14.70;99.00
14735;DHT22;7458;49.002;8.472;2023-03-21T06:45:07;15.00;99.30
14735;DHT22;7458;49.002;8.472;2023-03-21T06:47:33;15.10;98.30
14735;DHT22;7458;49.002;8.472;2023-03-21T06:49:59;14.80;98.30
14735;DHT22;7458;49.002;8.472;2023-03-21T06:52:24;14.40;99.00
14735;DHT22;7458;49.002;8.472;2023-03-21T06:54:50;14.10;99.70
14735;DHT22;7458;49.002;8.472;2023-03-21T06:57:16;14.30;99.90
14735;DHT22;7458;49.002;8.472;2023-03-21T06:59:42;16.30;95.90
14735;DHT22;7458;49.002;8.472;2023-03-21T07:02:10;16.60;96.30
14735;DHT22;7458;49.002;8.472;2023-03-21T07:04:36;17.40;93.00
14735;DHT22;7458;49.002;8.472;2023-03-21T07:07:02;16.20;92.80
14735;DHT22;7458;49.002;8.472;2023-03-21T07:09:28;15.50;93.60
14735;DHT22;7458;49.002;8.472;2023-03-21T07:11:53;14.90;94.50
14735;DHT22;7458;49.002;8.472;2023-03-21T07:14:19;14.60;95.50
14735;DHT22;7458;49.002;8.472;2023-03-21T07:16:45;14.80;96.10
14735;DHT22;7458;49.002;8.472;2023-03-21T07:19:11;15.10;95.50
14735;DHT22;7458;49.002;8.472;2023-03-21T07:21:37;15.60;96.50
14735;DHT22;7458;49.002;8.472;2023-03-21T07:24:02;15.60;94.40
14735;DHT22;7458;49.002;8.472;2023-03-21T07:26:28;15.50;93.50
14735;DHT22;7458;49.002;8.472;2023-03-21T07:28:54;15.10;93.90
14735;DHT22;7458;49.002;8.472;2023-03-21T07:31:20;15.20;94.10
14735;DHT22;7458;49.002;8.472;2023-03-21T07:33:46;16.00;93.30
14735;DHT22;7458;49.002;8.472;2023-03-21T07:36:13;16.90;91.70
14735;DHT22;7458;49.002;8.472;2023-03-21T07:38:40;17.60;89.10
14735;DHT22;7458;49.002;8.472;2023-03-21T07:41:07;18.10;86.70
14735;DHT22;7458;49.002;8.472;2023-03-21T07:43:33;18.80;84.80
14735;DHT22;7458;49.002;8.472;2023-03-21T07:45:59;19.00;80.60
14735;DHT22;7458;49.002;8.472;2023-03-21T07:48:25;19.30;76.30
14735;DHT22;7458;49.002;8.472;2023-03-21T07:50:52;19.50;75.00
14735;DHT22;7458;49.002;8.472;2023-03-21T07:53:18;19.60;74.90
14735;DHT22;7458;49.002;8.472;2023-03-21T07:55:48;19.50;71.80
14735;DHT22;7458;49.002;8.472;2023-03-21T07:58:15;19.40;71.60
14735;DHT22;7458;49.002;8.472;2023-03-21T08:00:41;18.70;72.40
14735;DHT22;7458;49.002;8.472;2023-03-21T08:03:09;18.60;73.50
14735;DHT22;7458;49.002;8.472;2023-03-21T08:05:36;18.70;73.30
14735;DHT22;7458;49.002;8.472;2023-03-21T08:08:04;18.90;73.40
14735;DHT22;7458;49.002;8.472;2023-03-21T08:10:31;18.80;72.60
14735;DHT22;7458;49.002;8.472;2023-03-21T08:12:57;18.70;72.30
14735;DHT22;7458;49.002;8.472;2023-03-21T08:15:23;18.60;71.30
14735;DHT22;7458;49.002;8.472;2023-03-21T08:17:49;18.30;72.60
14735;DHT22;7458;49.002;8.472;2023-03-21T08:20:18;18.10;72.00
14735;DHT22;7458;49.002;8.472;2023-03-21T08:22:47;18.00;72.90
14735;DHT22;7458;49.002;8.472;2023-03-21T08:25:14;18.10;73.30
14735;DHT22;7458;49.002;8.472;2023-03-21T08:27:43;17.80;72.70
14735;DHT22;7458;49.002;8.472;2023-03-21T08:30:11;17.50;72.70
14735;DHT22;7458;49.002;8.472;2023-03-21T08:32:40;17.50;75.10
14735;DHT22;7458;49.002;8.472;2023-03-21T08:35:08;17.60;74.10
14735;DHT22;7458;49.002;8.472;2023-03-21T08:37:37;17.30;74.50
14735;DHT22;7458;49.002;8.472;2023-03-21T08:40:09;17.20;75.90
14735;DHT22;7458;49.002;8.472;2023-03-21T08:42:38;17.00;77.40
14735;DHT22;7458;49.002;8.472;2023-03-21T08:45:05;16.80;77.50
14735;DHT22;7458;49.002;8.472;2023-03-21T08:47:32;16.70;77.80
14735;DHT22;7458;49.002;8.472;2023-03-21T08:49:58;16.80;77.80
14735;DHT22;7458;49.002;8.472;2023-03-21T08:52:24;16.60;79.30
14735;DHT22;7458;49.002;8.472;2023-03-21T08:54:52;16.60;79.10
14735;DHT22;7458;49.002;8.472;2023-03-21T08:57:21;16.70;79.00
14735;DHT22;7458;49.002;8.472;2023-03-21T08:59:46;16.70;80.10
14735;DHT22;7458;49.002;8.472;2023-03-21T09:02:13;16.70;80.40
14735;DHT22;7458;49.002;8.472;2023-03-21T09:04:40;16.60;80.40
14735;DHT22;7458;49.002;8.472;2023-03-21T09:07:08;16.50;81.80
14735;DHT22;7458;49.002;8.472;2023-03-21T09:09:37;16.40;81.30
14735;DHT22;7458;49.002;8.472;2023-03-21T09:12:03;16.20;80.10
14735;DHT22;7458;49.002;8.472;2023-03-21T09:14:29;16.30;82.60
14735;DHT22;7458;49.002;8.472;2023-03-21T09:16:55;16.20;83.40
14735;DHT22;7458;49.002;8.472;2023-03-21T09:19:21;16.10;83.10
14735;DHT22;7458;49.002;8.472;2023-03-21T09:21:48;16.10;83.70
14735;DHT22;7458;49.002;8.472;2023-03-21T09:24:14;15.90;82.40
14735;DHT22;7458;49.002;8.472;2023-03-21T09:26:42;15.80;83.30
14735;DHT22;7458;49.002;8.472;2023-03-21T09:29:09;15.80;84.30
14735;DHT22;7458;49.002;8.472;2023-03-21T09:31:34;15.80;85.30
14735;DHT22;7458;49.002;8.472;2023-03-21T09:34:00;15.80;85.40
14735;DHT22;7458;49.002;8.472;2023-03-21T09:36:26;15.80;85.30
14735;DHT22;7458;49.002;8.472;2023-03-21T09:38:54;15.90;85.00
14735;DHT22;7458;49.002;8.472;2023-03-21T09:44:27;15.90;83.30
14735;DHT22;7458;49.002;8.472;2023-03-21T09:47:24;16.00;83.30
14735;DHT22;7458;49.002;8.472;2023-03-21T09:50:03;16.00;85.10
14735;DHT22;7458;49.002;8.472;2023-03-21T09:55:27;16.10;85.10
14735;DHT22;7458;49.002;8.472;2023-03-21T10:00:49;16.20;84.90
14735;DHT22;7458;49.002;8.472;2023-03-21T10:03:21;16.20;84.50
14735;DHT22;7458;49.002;8.472;2023-03-21T10:05:52;16.20;84.40
14735;DHT22;7458;49.002;8.472;2023-03-21T10:08:29;16.20;84.60
14735;DHT22;7458;49.002;8.472;2023-03-21T10:11:11;16.20;85.30
14735;DHT22;7458;49.002;8.472;2023-03-21T10:13:45;16.20;85.50
14735;DHT22;7458;49.002;8.472;2023-03-21T10:16:31;16.20;84.80
14735;DHT22;7458;49.002;8.472;2023-03-21T10:19:11;16.20;85.80
14735;DHT22;7458;49.002;8.472;2023-03-21T10:21:40;16.20;86.40
14735;DHT22;7458;49.002;8.472;2023-03-21T10:24:15;16.20;85.80
14735;DHT22;7458;49.002;8.472;2023-03-21T10:26:47;16.20;85.40
14735;DHT22;7458;49.002;8.472;2023-03-21T10:29:16;16.20;85.00
14735;DHT22;7458;49.002;8.472;2023-03-21T10:31:48;16.20;86.00
14735;DHT22;7458;49.002;8.472;2023-03-21T10:34:40;16.30;85.60
14735;DHT22;7458;49.002;8.472;2023-03-21T10:37:10;16.30;84.20
14735;DHT22;7458;49.002;8.472;2023-03-21T10:39:46;16.30;85.50
14735;DHT22;7458;49.002;8.472;2023-03-21T10:42:20;16.30;85.10
14735;DHT22;7458;49.002;8.472;2023-03-21T10:44:53;16.60;91.00
14735;DHT22;7458;49.002;8.472;2023-03-21T10:47:32;17.80;92.20
14735;DHT22;7458;49.002;8.472;2023-03-21T10:50:07;18.80;85.40
14735;DHT22;7458;49.002;8.472;2023-03-21T10:52:52;18.30;79.80
14735;DHT22;7458;49.002;8.472;2023-03-21T10:55:28;17.80;79.20
14735;DHT22;7458;49.002;8.472;2023-03-21T10:58:03;17.30;79.50
14735;DHT22;7458;49.002;8.472;2023-03-21T11:04:15;16.80;82.30
14735;DHT22;7458;49.002;8.472;2023-03-21T11:06:50;16.60;81.80
14735;DHT22;7458;49.002;8.472;2023-03-21T11:09:21;16.50;83.10
14735;DHT22;7458;49.002;8.472;2023-03-21T11:12:04;16.50;83.70
14735;DHT22;7458;49.002;8.472;2023-03-21T11:20:02;16.90;81.60
14735;DHT22;7458;49.002;8.472;2023-03-21T11:22:39;17.10;81.40
14735;DHT22;7458;49.002;8.472;2023-03-21T11:25:31;17.20;80.10
14735;DHT22;7458;49.002;8.472;2023-03-21T11:28:06;17.30;79.90
14735;DHT22;7458;49.002;8.472;2023-03-21T11:30:55;17.30;79.80
14735;DHT22;7458;49.002;8.472;2023-03-21T11:33:26;17.70;80.30
14735;DHT22;7458;49.002;8.472;2023-03-21T11:36:25;18.00;79.50
14735;DHT22;7458;49.002;8.472;2023-03-21T11:39:41;18.50;77.30
14735;DHT22;7458;49.002;8.472;2023-03-21T11:41:55;18.60;74.60
14735;DHT22;7458;49.002;8.472;2023-03-21T11:44:29;18.90;73.10
14735;DHT22;7458;49.002;8.472;2023-03-21T11:46:57;18.90;71.60
14735;DHT22;7458;49.002;8.472;2023-03-21T11:49:24;18.50;71.60
14735;DHT22;7458;49.002;8.472;2023-03-21T11:52:02;18.30;72.90
14735;DHT22;7458;49.002;8.472;2023-03-21T11:55:10;18.20;72.50
14735;DHT22;7458;49.002;8.472;2023-03-21T11:57:58;18.20;72.60
14735;DHT22;7458;49.002;8.472;2023-03-21T12:01:16;18.50;73.50
14735;DHT22;7458;49.002;8.472;2023-03-21T12:10:25;19.00;69.70
14735;DHT22;7458;49.002;8.472;2023-03-21T12:13:06;18.90;69.20
14735;DHT22;7458;49.002;8.472;2023-03-21T12:23:16;18.40;69.10
14735;DHT22;7458;49.002;8.472;2023-03-21T12:25:53;18.40;70.30
14735;DHT22;7458;49.002;8.472;2023-03-21T12:37:49;19.00;71.20
14735;DHT22;7458;49.002;8.472;2023-03-21T12:43:43;19.20;70.00
14735;DHT22;7458;49.002;8.472;2023-03-21T12:46:18;19.10;68.00
14735;DHT22;7458;49.002;8.472;2023-03-21T12:49:24;19.20;67.90
14735;DHT22;7458;49.002;8.472;2023-03-21T12:52:22;19.10;66.30
14735;DHT22;7458;49.002;8.472;2023-03-21T12:54:57;18.90;66.10
14735;DHT22;7458;49.002;8.472;2023-03-21T12:57:35;18.90;66.70
14735;DHT22;7458;49.002;8.472;2023-03-21T13:00:21;19.00;66.60
14735;DHT22;7458;49.002;8.472;2023-03-21T13:03:09;19.20;65.40
14735;DHT22;7458;49.002;8.472;2023-03-21T13:05:52;19.20;65.40
14735;DHT22;7458;49.002;8.472;2023-03-21T13:10:54;19.30;65.60
14735;DHT22;7458;49.002;8.472;2023-03-21T13:22:24;19.30;63.40
14735;DHT22;7458;49.002;8.472;2023-03-21T13:27:53;19.10;61.60
14735;DHT22;7458;49.002;8.472;2023-03-21T13:30:27;19.10;61.60
14735;DHT22;7458;49.002;8.472;2023-03-21T13:33:07;19.30;62.80
14735;DHT22;7458;49.002;8.472;2023-03-21T13:35:40;19.40;61.70
14735;DHT22;7458;49.002;8.472;2023-03-21T13:38:24;19.40;61.40
14735;DHT22;7458;49.002;8.472;2023-03-21T13:41:10;19.50;61.80
14735;DHT22;7458;49.002;8.472;2023-03-21T13:49:40;19.40;61.60
14735;DHT22;7458;49.002;8.472;2023-03-21T13:51:55;19.40;61.50
14735;DHT22;7458;49.002;8.472;2023-03-21T13:54:51;19.40;62.70
14735;DHT22;7458;49.002;8.472;2023-03-21T14:03:11;19.40;64.20
14735;DHT22;7458;49.002;8.472;2023-03-21T14:05:48;19.50;63.90
14735;DHT22;7458;49.002;8.472;2023-03-21T14:08:17;19.50;62.80
14735;DHT22;7458;49.002;8.472;2023-03-21T14:10:47;19.40;62.70
14735;DHT22;7458;49.002;8.472;2023-03-21T14:13:21;19.40;62.40
14735;DHT22;7458;49.002;8.472;2023-03-21T14:16:09;19.10;61.80
14735;DHT22;7458;49.002;8.472;2023-03-21T14:18:44;19.20;62.70
14735;DHT22;7458;49.002;8.472;2023-03-21T14:21:24;19.10;62.60
14735;DHT22;7458;49.002;8.472;2023-03-21T14:24:10;19.10;63.50
14735;DHT22;7458;49.002;8.472;2023-03-21T14:26:41;19.00;63.60
14735;DHT22;7458;49.002;8.472;2023-03-21T14:29:19;19.00;63.90
14735;DHT22;7458;49.002;8.472;2023-03-21T14:31:58;19.00;62.80
14735;DHT22;7458;49.002;8.472;2023-03-21T14:34:26;19.00;62.20
14735;DHT22;7458;49.002;8.472;2023-03-21T14:36:55;18.80;62.10
14735;DHT22;7458;49.002;8.472;2023-03-21T14:39:30;18.70;62.50
14735;DHT22;7458;49.002;8.472;2023-03-21T14:42:10;18.80;62.70
14735;DHT22;7458;49.002;8.472;2023-03-21T14:44:47;18.80;62.60
14735;DHT22;7458;49.002;8.472;2023-03-21T14:47:20;18.80;62.70
14735;DHT22;7458;49.002;8.472;2023-03-21T14:49:51;18.80;62.70
14735;DHT22;7458;49.002;8.472;2023-03-21T14:52:31;18.80;61.10
14735;DHT22;7458;49.002;8.472;2023-03-21T14:55:10;18.70;61.90
14735;DHT22;7458;49.002;8.472;2023-03-21T14:57:39;18.70;62.00
14735;DHT22;7458;49.002;8.472;2023-03-21T15:00:08;18.70;62.90
14735;DHT22;7458;49.002;8.472;2023-03-21T15:02:43;18.70;62.70
14735;DHT22;7458;49.002;8.472;2023-03-21T15:05:26;18.60;62.10
14735;DHT22;7458;49.002;8.472;2023-03-21T15:08:01;18.50;61.50
14735;DHT22;7458;49.002;8.472;2023-03-21T15:10:33;18.40;61.80
14735;DHT22;7458;49.002;8.472;2023-03-21T15:13:01;18.30;62.00
14735;DHT22;7458;49.002;8.472;2023-03-21T15:15:38;18.30;61.50
14735;DHT22;7458;49.002;8.472;2023-03-21T15:18:05;18.30;61.30
14735;DHT22;7458;49.002;8.472;2023-03-21T15:20:35;18.30;59.70
14735;DHT22;7458;49.002;8.472;2023-03-21T15:23:07;18.20;59.30
14735;DHT22;7458;49.002;8.472;2023-03-21T15:25:39;18.20;58.90
14735;DHT22;7458;49.002;8.472;2023-03-21T15:28:06;18.20;57.80
14735;DHT22;7458;49.002;8.472;2023-03-21T15:30:32;18.10;57.40
14735;DHT22;7458;49.002;8.472;2023-03-21T15:33:06;18.00;57.40
14735;DHT22;7458;49.002;8.472;2023-03-21T15:35:37;17.90;57.70
14735;DHT22;7458;49.002;8.472;2023-03-21T15:38:05;17.90;57.30
14735;DHT22;7458;49.002;8.472;2023-03-21T15:40:33;18.00;58.00
14735;DHT22;7458;49.002;8.472;2023-03-21T15:43:17;18.00;58.20
14735;DHT22;7458;49.002;8.472;2023-03-21T15:45:54;18.00;58.40
14735;DHT22;7458;49.002;8.472;2023-03-21T15:48:27;18.00;58.50
14735;DHT22;7458;49.002;8.472;2023-03-21T15:51:00;18.10;58.20
14735;DHT22;7458;49.002;8.472;2023-03-21T15:53:32;18.10;58.70
14735;DHT22;7458;49.002;8.472;2023-03-21T15:56:01;18.10;58.70
14735;DHT22;7458;49.002;8.472;2023-03-21T15:58:35;18.10;58.50
14735;DHT22;7458;49.002;8.472;2023-03-21T16:01:11;18.10;58.90
14735;DHT22;7458;49.002;8.472;2023-03-21T16:03:43;18.10;58.50
14735;DHT22;7458;49.002;8.472;2023-03-21T16:06:22;17.90;58.60
14735;DHT22;7458;49.002;8.472;2023-03-21T16:11:38;17.80;59.00
14735;DHT22;7458;49.002;8.472;2023-03-21T16:14:25;17.90;59.60
14735;DHT22;7458;49.002;8.472;2023-03-21T16:16:55;17.90;58.90
14735;DHT22;7458;49.002;8.472;2023-03-21T16:19:21;17.90;59.90
14735;DHT22;7458;49.002;8.472;2023-03-21T16:21:49;17.80;59.30
14735;DHT22;7458;49.002;8.472;2023-03-21T16:24:14;17.80;59.70
14735;DHT22;7458;49.002;8.472;2023-03-21T16:26:45;17.80;59.80
14735;DHT22;7458;49.002;8.472;2023-03-21T16:29:15;18.80;60.90
14735;DHT22;7458;49.002;8.472;2023-03-21T16:31:43;17.70;60.90
14735;DHT22;7458;49.002;8.472;2023-03-21T16:34:11;17.70;61.40
14735;DHT22;7458;49.002;8.472;2023-03-21T16:36:39;17.70;61.30
14735;DHT22;7458;49.002;8.472;2023-03-21T16:39:19;17.70;61.20
14735;DHT22;7458;49.002;8.472;2023-03-21T16:41:47;17.70;61.20
14735;DHT22;7458;49.002;8.472;2023-03-21T16:44:14;17.60;61.20
14735;DHT22;7458;49.002;8.472;2023-03-21T16:46:44;17.60;63.70
14735;DHT22;7458;49.002;8.472;2023-03-21T16:49:25;18.10;73.40
14735;DHT22;7458;49.002;8.472;2023-03-21T16:51:53;18.20;67.00
14735;DHT22;7458;49.002;8.472;2023-03-21T16:54:20;18.10;65.00
14735;DHT22;7458;49.002;8.472;2023-03-21T16:56:52;18.00;64.90
14735;DHT22;7458;49.002;8.472;2023-03-21T16:59:20;17.80;63.20
14735;DHT22;7458;49.002;8.472;2023-03-21T17:01:46;17.60;63.60
14735;DHT22;7458;49.002;8.472;2023-03-21T17:04:13;17.50;63.90
14735;DHT22;7458;49.002;8.472;2023-03-21T17:06:51;17.50;64.40
14735;DHT22;7458;49.002;8.472;2023-03-21T17:09:23;17.50;64.70
14735;DHT22;7458;49.002;8.472;2023-03-21T17:11:51;17.50;64.80
14735;DHT22;7458;49.002;8.472;2023-03-21T17:14:17;17.40;65.40
14735;DHT22;7458;49.002;8.472;2023-03-21T17:16:45;17.40;65.10
14735;DHT22;7458;49.002;8.472;2023-03-21T17:19:20;17.40;64.90
14735;DHT22;7458;49.002;8.472;2023-03-21T17:21:50;17.30;64.80
14735;DHT22;7458;49.002;8.472;2023-03-21T17:24:16;17.40;64.80
14735;DHT22;7458;49.002;8.472;2023-03-21T17:26:42;17.40;65.20
14735;DHT22;7458;49.002;8.472;2023-03-21T17:29:13;17.30;65.10
14735;DHT22;7458;49.002;8.472;2023-03-21T17:31:39;17.30;65.50
14735;DHT22;7458;49.002;8.472;2023-03-21T17:34:06;17.20;65.50
14735;DHT22;7458;49.002;8.472;2023-03-21T17:36:36;17.20;65.80
14735;DHT22;7458;49.002;8.472;2023-03-21T17:39:05;17.20;67.00
14735;DHT22;7458;49.002;8.472;2023-03-21T17:41:35;17.20;66.60
14735;DHT22;7458;49.002;8.472;2023-03-21T17:44:01;17.20;66.70
14735;DHT22;7458;49.002;8.472;2023-03-21T17:46:27;17.10;67.10
14735;DHT22;7458;49.002;8.472;2023-03-21T17:48:56;17.20;69.40
14735;DHT22;7458;49.002;8.472;2023-03-21T17:51:22;17.10;68.50
14735;DHT22;7458;49.002;8.472;2023-03-21T17:53:50;17.00;68.20
14735;DHT22;7458;49.002;8.472;2023-03-21T17:56:21;17.00;68.20
14735;DHT22;7458;49.002;8.472;2023-03-21T17:58:56;17.00;68.60
14735;DHT22;7458;49.002;8.472;2023-03-21T18:01:24;17.00;68.20
14735;DHT22;7458;49.002;8.472;2023-03-21T18:03:50;17.00;67.70
14735;DHT22;7458;49.002;8.472;2023-03-21T18:06:18;17.00;68.00
14735;DHT22;7458;49.002;8.472;2023-03-21T18:08:47;17.00;68.80
14735;DHT22;7458;49.002;8.472;2023-03-21T18:11:15;17.00;68.70